createdAt,value
2022-09-18T00:01:32.415Z,12.23
2022-09-18T00:04:01.652Z,12.08
2022-09-18T00:06:32.003Z,11.92
2022-09-18T00:09:01.865Z,11.94
2022-09-18T00:11:34.522Z,12.01
2022-09-18T00:14:02.498Z,12.01
2022-09-18T00:16:31.909Z,12.14
2022-09-18T00:19:00.365Z,12.21
2022-09-18T00:21:29.792Z,12.23
2022-09-18T00:23:59.945Z,12.20
2022-09-18T00:26:29.109Z,12.18
2022-09-18T00:28:59.090Z,12.00
2022-09-18T00:31:29.953Z,11.88
2022-09-18T00:34:02.640Z,11.82
2022-09-18T00:36:31.179Z,11.89
2022-09-18T00:39:00.447Z,11.88
2022-09-18T00:41:30.677Z,11.87
2022-09-18T00:44:31.947Z,11.75
2022-09-18T00:47:05.551Z,11.63
2022-09-18T00:49:35.608Z,11.54
2022-09-18T00:52:03.839Z,11.46
2022-09-18T00:54:35.511Z,11.32
2022-09-18T00:57:08.798Z,11.26
2022-09-18T00:59:38.890Z,11.33
2022-09-18T01:02:07.502Z,11.39
2022-09-18T01:04:36.828Z,11.33
2022-09-18T01:07:15.673Z,11.35
2022-09-18T01:09:59.565Z,11.33
2022-09-18T01:12:34.270Z,11.29
2022-09-18T01:15:09.805Z,11.28
2022-09-18T01:17:45.978Z,11.31
2022-09-18T01:20:47.734Z,11.27
2022-09-18T01:23:36.383Z,11.26
2022-09-18T01:26:18.855Z,11.23
2022-09-18T01:28:53.062Z,11.23
2022-09-18T01:31:28.250Z,11.24
2022-09-18T01:34:02.668Z,11.20
2022-09-18T01:36:35.743Z,11.15
2022-09-18T01:39:10.742Z,11.17
2022-09-18T01:41:41.511Z,11.11
2022-09-18T01:44:16.604Z,11.17
2022-09-18T01:46:46.688Z,11.23
2022-09-18T01:49:22.233Z,11.21
2022-09-18T01:51:56.106Z,11.22
2022-09-18T01:54:29.791Z,11.24
2022-09-18T01:57:03.947Z,11.22
2022-09-18T01:59:39.912Z,11.18
2022-09-18T02:02:16.777Z,11.14
2022-09-18T02:04:48.504Z,11.20
2022-09-18T02:07:24.046Z,11.22
2022-09-18T02:09:52.635Z,11.19
2022-09-18T02:12:26.353Z,11.15
2022-09-18T02:15:04.428Z,11.08
2022-09-18T02:17:54.235Z,11.04
2022-09-18T02:20:30.383Z,11.04
2022-09-18T02:23:04.329Z,10.99
2022-09-18T02:25:38.262Z,11.00
2022-09-18T02:28:08.536Z,10.97
2022-09-18T02:30:40.984Z,10.97
2022-09-18T02:33:24.726Z,10.95
2022-09-18T02:36:06.135Z,10.90
2022-09-18T02:38:45.451Z,10.86
2022-09-18T02:41:18.639Z,10.85
2022-09-18T02:43:55.704Z,10.87
2022-09-18T02:46:38.358Z,10.87
2022-09-18T02:49:11.991Z,10.87
2022-09-18T02:51:47.948Z,10.85
2022-09-18T02:54:23.948Z,10.84
2022-09-18T02:56:58.112Z,10.77
2022-09-18T02:59:31.073Z,10.77
2022-09-18T03:02:01.569Z,10.76
2022-09-18T03:04:32.105Z,10.79
2022-09-18T03:07:08.159Z,10.76
2022-09-18T03:09:42.740Z,10.71
2022-09-18T03:12:10.896Z,10.70
2022-09-18T03:14:41.371Z,10.71
2022-09-18T03:17:11.356Z,10.69
2022-09-18T03:19:39.398Z,10.70
2022-09-18T03:22:08.484Z,10.69
2022-09-18T03:24:39.737Z,10.73
2022-09-18T03:27:08.432Z,10.73
2022-09-18T03:29:37.004Z,10.71
2022-09-18T03:32:05.610Z,10.69
2022-09-18T03:34:43.377Z,10.69
2022-09-18T03:37:11.369Z,10.69
2022-09-18T03:39:39.518Z,10.71
2022-09-18T03:42:10.694Z,10.68
2022-09-18T03:44:38.644Z,10.66
2022-09-18T03:47:16.425Z,10.63
2022-09-18T03:49:45.755Z,10.65
2022-09-18T03:52:14.277Z,10.63
2022-09-18T03:54:52.581Z,10.63
2022-09-18T03:57:43.158Z,10.58
2022-09-18T04:00:27.431Z,10.56
2022-09-18T04:03:02.226Z,10.54
2022-09-18T04:05:51.149Z,10.49
2022-09-18T04:08:44.643Z,10.42
2022-09-18T04:11:27.232Z,10.38
2022-09-18T04:13:55.275Z,10.37
2022-09-18T04:16:23.692Z,10.37
2022-09-18T04:18:53.233Z,10.33
2022-09-18T04:21:24.611Z,10.29
2022-09-18T04:23:53.179Z,10.30
2022-09-18T04:26:22.954Z,10.29
2022-09-18T04:28:55.463Z,10.27
2022-09-18T04:31:23.698Z,10.27
2022-09-18T04:33:51.873Z,10.23
2022-09-18T04:36:25.685Z,10.18
2022-09-18T04:38:53.954Z,10.21
2022-09-18T04:41:22.468Z,10.19
2022-09-18T04:43:50.489Z,10.17
2022-09-18T04:46:20.216Z,10.15
2022-09-18T04:48:50.037Z,10.12
2022-09-18T04:51:21.607Z,10.09
2022-09-18T04:53:51.756Z,10.06
2022-09-18T04:56:20.071Z,10.08
2022-09-18T04:58:51.098Z,10.08
2022-09-18T05:01:19.389Z,10.03
2022-09-18T05:03:47.627Z,10.06
2022-09-18T05:06:32.120Z,10.04
2022-09-18T05:09:03.277Z,10.01
2022-09-18T05:11:31.725Z,10.11
2022-09-18T05:13:59.859Z,10.11
2022-09-18T05:16:31.595Z,10.02
2022-09-18T05:19:17.600Z,10.04
2022-09-18T05:21:45.583Z,10.05
2022-09-18T05:24:15.582Z,10.06
2022-09-18T05:26:43.592Z,10.06
2022-09-18T05:29:12.232Z,10.11
2022-09-18T05:31:42.033Z,10.15
2022-09-18T05:34:10.483Z,10.18
2022-09-18T05:36:39.414Z,10.17
2022-09-18T05:39:07.388Z,10.21
2022-09-18T05:41:37.191Z,10.20
2022-09-18T05:44:05.452Z,10.14
2022-09-18T05:46:33.496Z,10.16
2022-09-18T05:49:06.371Z,10.20
2022-09-18T05:51:34.382Z,10.17
2022-09-18T05:54:03.236Z,10.17
2022-09-18T05:56:52.834Z,10.17
2022-09-18T05:59:20.817Z,10.14
2022-09-18T06:01:49.959Z,10.15
2022-09-18T06:04:34.276Z,10.15
2022-09-18T06:07:09.571Z,10.19
2022-09-18T06:09:37.532Z,10.23
2022-09-18T06:12:07.605Z,10.26
2022-09-18T06:14:36.984Z,10.30
2022-09-18T06:17:05.011Z,10.30
2022-09-18T06:19:35.224Z,10.32
2022-09-18T06:22:03.297Z,10.35
2022-09-18T06:24:32.957Z,10.39
2022-09-18T06:27:14.011Z,10.50
2022-09-18T06:29:41.945Z,10.58
2022-09-18T06:32:13.362Z,10.62
2022-09-18T06:34:41.799Z,10.72
2022-09-18T06:37:14.075Z,10.81
2022-09-18T06:39:45.566Z,10.92
2022-09-18T06:42:34.601Z,10.99
2022-09-18T06:45:22.795Z,11.06
2022-09-18T06:47:54.305Z,11.11
2022-09-18T06:50:24.810Z,11.15
2022-09-18T06:52:53.024Z,11.22
2022-09-18T06:55:22.428Z,11.27
2022-09-18T06:58:06.697Z,11.31
2022-09-18T07:00:35.004Z,11.36
2022-09-18T07:03:04.862Z,11.48
2022-09-18T07:05:51.251Z,11.54
2022-09-18T07:08:43.529Z,11.64
2022-09-18T07:11:17.712Z,11.69
2022-09-18T07:13:47.721Z,11.81
2022-09-18T07:16:15.735Z,11.88
2022-09-18T07:18:44.809Z,11.85
2022-09-18T07:21:14.105Z,11.83
2022-09-18T07:23:44.513Z,11.76
2022-09-18T07:26:13.085Z,11.76
2022-09-18T07:28:41.069Z,11.84
2022-09-18T07:31:33.086Z,11.81
2022-09-18T07:34:04.409Z,12.02
2022-09-18T07:36:33.047Z,12.19
2022-09-18T07:39:01.029Z,12.36
2022-09-18T07:41:36.534Z,12.43
2022-09-18T07:44:04.501Z,12.36
2022-09-18T07:46:34.140Z,12.29
2022-09-18T07:49:05.296Z,12.45
2022-09-18T07:51:33.260Z,12.36
2022-09-18T07:54:01.360Z,12.21
2022-09-18T07:56:54.201Z,12.26
2022-09-18T07:59:25.049Z,12.32
2022-09-18T08:02:00.194Z,12.18
2022-09-18T08:04:31.249Z,12.29
2022-09-18T08:07:07.248Z,12.40
2022-09-18T08:09:53.970Z,12.31
2022-09-18T08:12:55.194Z,12.25
2022-09-18T08:15:30.111Z,12.40
2022-09-18T08:18:18.283Z,12.44
2022-09-18T08:21:00.604Z,12.51
2022-09-18T08:23:40.351Z,12.67
2022-09-18T08:26:09.186Z,12.79
2022-09-18T08:28:38.357Z,12.75
2022-09-18T08:31:07.598Z,12.77
2022-09-18T08:33:37.086Z,12.95
2022-09-18T08:36:05.462Z,13.10
2022-09-18T08:38:39.003Z,13.11
2022-09-18T08:41:39.786Z,13.02
2022-09-18T08:44:12.715Z,13.15
2022-09-18T08:46:48.342Z,13.32
2022-09-18T08:49:25.837Z,13.18
2022-09-18T08:52:04.224Z,12.92
2022-09-18T08:54:46.842Z,12.83
2022-09-18T08:57:38.666Z,12.95
2022-09-18T09:00:18.637Z,13.17
2022-09-18T09:02:54.755Z,13.26
2022-09-18T09:05:31.327Z,13.22
2022-09-18T09:08:13.659Z,13.33
2022-09-18T09:10:47.273Z,13.39
2022-09-18T09:13:45.598Z,13.19
2022-09-18T09:16:17.623Z,13.10
2022-09-18T09:19:00.161Z,13.28
2022-09-18T09:21:47.628Z,13.39
2022-09-18T09:24:31.230Z,13.59
2022-09-18T09:27:20.867Z,13.71
2022-09-18T09:30:17.475Z,13.90
2022-09-18T09:33:09.913Z,13.93
2022-09-18T09:36:04.007Z,13.84
2022-09-18T09:38:52.112Z,13.94
2022-09-18T09:41:27.666Z,14.13
2022-09-18T09:44:03.825Z,14.26
2022-09-18T09:46:48.352Z,14.47
2022-09-18T09:49:21.831Z,14.63
2022-09-18T09:51:58.298Z,14.71
2022-09-18T09:54:27.664Z,14.68
2022-09-18T09:57:05.036Z,14.60
2022-09-18T09:59:43.505Z,14.69
2022-09-18T10:02:33.311Z,14.81
2022-09-18T10:05:11.990Z,14.99
2022-09-18T10:07:45.727Z,15.01
2022-09-18T10:10:24.537Z,15.01
2022-09-18T10:12:55.931Z,14.95
2022-09-18T10:15:35.079Z,15.01
2022-09-18T10:18:10.025Z,15.14
2022-09-18T10:20:41.947Z,15.30
2022-09-18T10:23:15.928Z,15.40
2022-09-18T10:25:51.193Z,15.44
2022-09-18T10:28:19.255Z,15.47
2022-09-18T10:30:57.884Z,15.50
2022-09-18T10:33:38.132Z,15.65
2022-09-18T10:36:19.534Z,15.73
2022-09-18T10:38:48.059Z,15.76
2022-09-18T10:41:45.094Z,15.78
2022-09-18T10:44:25.831Z,15.85
2022-09-18T10:47:06.476Z,15.87
2022-09-18T10:49:40.875Z,15.96
2022-09-18T10:52:32.320Z,15.73
2022-09-18T10:55:17.940Z,15.53
2022-09-18T10:58:14.651Z,15.66
2022-09-18T11:00:56.488Z,15.70
2022-09-18T11:03:38.985Z,15.87
2022-09-18T11:06:17.592Z,15.97
2022-09-18T11:08:51.916Z,16.08
2022-09-18T11:11:25.109Z,16.06
2022-09-18T11:13:59.328Z,16.23
2022-09-18T11:16:34.437Z,16.38
2022-09-18T11:19:07.467Z,16.50
2022-09-18T11:21:46.200Z,16.55
2022-09-18T11:24:23.400Z,16.60
2022-09-18T11:26:54.076Z,16.66
2022-09-18T11:29:30.756Z,16.74
2022-09-18T11:32:05.082Z,16.84
2022-09-18T11:34:39.479Z,16.94
2022-09-18T11:37:13.714Z,17.04
2022-09-18T11:39:46.564Z,17.05
2022-09-18T11:42:18.381Z,16.97
2022-09-18T11:44:50.208Z,16.81
2022-09-18T11:47:29.642Z,16.61
2022-09-18T11:50:09.563Z,16.64
2022-09-18T11:52:41.331Z,16.92
2022-09-18T11:55:18.624Z,17.02
2022-09-18T11:57:49.843Z,17.16
2022-09-18T12:00:22.525Z,17.10
2022-09-18T12:03:07.054Z,17.19
2022-09-18T12:05:52.352Z,17.05
2022-09-18T12:08:32.949Z,16.92
2022-09-18T12:11:15.379Z,16.85
2022-09-18T12:13:53.696Z,16.84
2022-09-18T12:16:32.326Z,16.97
2022-09-18T12:19:05.236Z,16.97
2022-09-18T12:21:43.745Z,17.12
2022-09-18T12:24:15.073Z,17.28
2022-09-18T12:27:09.346Z,17.14
2022-09-18T12:29:52.285Z,17.20
2022-09-18T12:32:35.160Z,17.35
2022-09-18T12:35:14.405Z,17.54
2022-09-18T12:37:54.799Z,17.74
2022-09-18T12:40:37.175Z,17.55
2022-09-18T12:43:26.269Z,17.51
2022-09-18T12:46:23.359Z,17.42
2022-09-18T12:49:10.003Z,17.36
2022-09-18T12:51:44.185Z,17.48
2022-09-18T12:54:37.014Z,17.47
2022-09-18T12:57:25.663Z,17.51
2022-09-18T12:59:57.506Z,17.55
2022-09-18T13:02:35.507Z,17.76
2022-09-18T13:05:09.704Z,18.02
2022-09-18T13:07:43.759Z,18.06
2022-09-18T13:10:18.843Z,18.26
2022-09-18T13:12:54.476Z,18.38
2022-09-18T13:15:26.876Z,18.52
2022-09-18T13:18:02.776Z,18.56
2022-09-18T13:20:35.319Z,18.78
2022-09-18T13:23:03.775Z,18.91
2022-09-18T13:25:36.233Z,18.87
2022-09-18T13:28:08.014Z,19.07
2022-09-18T13:30:36.095Z,19.23
2022-09-18T13:33:04.916Z,19.06
2022-09-18T13:35:36.515Z,19.02
2022-09-18T13:38:23.705Z,19.28
2022-09-18T13:41:00.277Z,19.14
2022-09-18T13:43:47.543Z,19.14
2022-09-18T13:46:39.703Z,19.29
2022-09-18T13:49:28.506Z,19.42
2022-09-18T13:51:57.977Z,19.70
2022-09-18T13:54:29.235Z,19.67
2022-09-18T13:57:29.683Z,19.50
2022-09-18T14:00:00.548Z,19.54
2022-09-18T14:02:36.383Z,19.27
2022-09-18T14:05:30.344Z,19.32
2022-09-18T14:08:07.646Z,19.38
2022-09-18T14:11:14.218Z,19.34
2022-09-18T14:13:54.359Z,19.46
2022-09-18T14:16:31.071Z,19.85
2022-09-18T14:19:04.286Z,20.16
2022-09-18T14:21:34.582Z,20.12
2022-09-18T14:24:39.639Z,19.97
2022-09-18T14:27:34.448Z,20.17
2022-09-18T14:30:15.815Z,20.23
2022-09-18T14:32:58.272Z,20.30
2022-09-18T14:35:36.742Z,20.29
2022-09-18T14:38:17.995Z,20.35
2022-09-18T14:40:54.694Z,20.58
2022-09-18T14:43:24.659Z,20.74
2022-09-18T14:45:54.403Z,20.77
2022-09-18T14:48:27.923Z,20.48
2022-09-18T14:51:05.093Z,20.07
2022-09-18T14:53:40.667Z,20.12
2022-09-18T14:56:14.794Z,20.17
2022-09-18T14:58:46.412Z,20.19
2022-09-18T15:01:17.260Z,20.25
2022-09-18T15:03:48.735Z,20.20
2022-09-18T15:06:22.150Z,20.19
2022-09-18T15:08:57.177Z,20.32
2022-09-18T15:11:37.679Z,20.37
2022-09-18T15:14:22.692Z,20.09
2022-09-18T15:16:58.568Z,20.23
2022-09-18T15:19:27.439Z,20.15
2022-09-18T15:21:57.039Z,20.25
2022-09-18T15:24:25.857Z,20.23
2022-09-18T15:26:59.375Z,20.25
2022-09-18T15:29:30.994Z,20.13
2022-09-18T15:31:59.689Z,20.30
2022-09-18T15:34:30.335Z,20.10
2022-09-18T15:37:01.272Z,19.99
2022-09-18T15:39:32.553Z,19.92
2022-09-18T15:42:19.735Z,19.99
2022-09-18T15:45:18.247Z,19.98
2022-09-18T15:47:46.745Z,20.06
2022-09-18T15:50:36.743Z,20.16
2022-09-18T15:53:25.382Z,20.13
2022-09-18T15:55:59.911Z,20.21
2022-09-18T15:58:51.690Z,20.41
2022-09-18T16:01:25.985Z,20.65
2022-09-18T16:04:20.219Z,20.53
2022-09-18T16:06:57.888Z,20.49
2022-09-18T16:09:34.162Z,20.32
2022-09-18T16:12:02.612Z,20.35
2022-09-18T16:14:59.659Z,20.56
2022-09-18T16:17:37.239Z,20.33
2022-09-18T16:20:39.837Z,20.31
2022-09-18T16:23:16.500Z,20.36
2022-09-18T16:25:45.693Z,20.43
2022-09-18T16:28:23.766Z,20.33
2022-09-18T16:30:54.054Z,20.08
2022-09-18T16:33:27.011Z,20.19
2022-09-18T16:35:57.727Z,20.12
2022-09-18T16:38:25.641Z,20.07
2022-09-18T16:40:53.656Z,19.81
2022-09-18T16:43:21.697Z,19.68
2022-09-18T16:45:49.845Z,19.74
2022-09-18T16:48:20.098Z,19.71
2022-09-18T16:50:48.553Z,19.84
2022-09-18T16:53:16.732Z,19.91
2022-09-18T16:55:49.107Z,19.66
2022-09-18T16:58:19.336Z,19.56
2022-09-18T17:00:47.469Z,19.56
2022-09-18T17:03:16.240Z,19.57
2022-09-18T17:05:45.703Z,19.38
2022-09-18T17:08:14.037Z,19.28
2022-09-18T17:10:45.044Z,19.22
2022-09-18T17:13:13.660Z,19.05
2022-09-18T17:15:41.943Z,18.79
2022-09-18T17:18:09.968Z,18.67
2022-09-18T17:20:38.063Z,18.76
2022-09-18T17:23:07.773Z,18.71
2022-09-18T17:25:35.671Z,18.61
2022-09-18T17:28:03.818Z,18.56
2022-09-18T17:30:32.245Z,18.42
2022-09-18T17:33:00.220Z,18.20
2022-09-18T17:35:28.150Z,18.17
2022-09-18T17:37:56.357Z,18.11
2022-09-18T17:40:25.694Z,18.00
2022-09-18T17:42:54.083Z,17.88
2022-09-18T17:45:21.979Z,17.78
2022-09-18T17:47:52.181Z,17.66
2022-09-18T17:50:21.361Z,17.56
2022-09-18T17:52:49.592Z,17.54
2022-09-18T17:55:18.364Z,17.50
2022-09-18T17:57:49.589Z,17.44
2022-09-18T18:00:17.812Z,17.35
2022-09-18T18:02:45.727Z,17.11
2022-09-18T18:05:13.669Z,17.06
2022-09-18T18:07:41.603Z,17.09
2022-09-18T18:10:10.271Z,17.05
2022-09-18T18:12:38.166Z,16.96
2022-09-18T18:15:08.818Z,16.92
2022-09-18T18:17:36.739Z,16.88
2022-09-18T18:20:06.486Z,16.79
2022-09-18T18:22:34.474Z,16.68
2022-09-18T18:25:02.547Z,16.67
2022-09-18T18:27:30.477Z,16.68
2022-09-18T18:30:00.239Z,16.65
2022-09-18T18:32:29.626Z,16.60
2022-09-18T18:34:57.838Z,16.46
2022-09-18T18:37:25.801Z,16.35
2022-09-18T18:39:53.845Z,16.19
2022-09-18T18:42:21.911Z,16.11
2022-09-18T18:44:49.812Z,16.06
2022-09-18T18:47:20.400Z,15.99
2022-09-18T18:49:49.715Z,15.93
2022-09-18T18:52:17.686Z,15.88
2022-09-18T18:54:45.916Z,15.82
2022-09-18T18:57:13.847Z,15.74
2022-09-18T18:59:43.557Z,15.65
2022-09-18T19:02:12.055Z,15.56
2022-09-18T19:04:41.492Z,15.51
2022-09-18T19:07:10.850Z,15.48
2022-09-18T19:09:38.828Z,15.41
2022-09-18T19:12:06.900Z,15.39
2022-09-18T19:14:38.005Z,15.32
2022-09-18T19:17:06.165Z,15.24
2022-09-18T19:19:34.774Z,15.20
2022-09-18T19:22:02.892Z,15.21
2022-09-18T19:24:32.208Z,15.16
2022-09-18T19:27:00.157Z,15.13
2022-09-18T19:29:29.293Z,15.12
2022-09-18T19:31:57.749Z,15.12
2022-09-18T19:34:26.095Z,15.10
2022-09-18T19:36:54.077Z,15.10
2022-09-18T19:39:24.675Z,15.01
2022-09-18T19:41:59.309Z,15.02
2022-09-18T19:44:32.791Z,15.03
2022-09-18T19:47:03.343Z,15.07
2022-09-18T19:49:34.839Z,15.08
2022-09-18T19:52:03.375Z,15.09
2022-09-18T19:54:31.929Z,15.08
2022-09-18T19:57:01.270Z,15.02
2022-09-18T19:59:29.419Z,14.94
2022-09-18T20:01:57.425Z,14.96
2022-09-18T20:04:25.547Z,15.02
2022-09-18T20:06:53.477Z,14.96
2022-09-18T20:09:21.491Z,14.94
2022-09-18T20:11:49.857Z,14.94
2022-09-18T20:14:19.201Z,14.89
2022-09-18T20:16:47.510Z,14.82
2022-09-18T20:19:15.513Z,14.83
2022-09-18T20:21:43.651Z,14.81
2022-09-18T20:24:12.157Z,14.81
2022-09-18T20:26:40.080Z,14.77
2022-09-18T20:29:08.239Z,14.76
2022-09-18T20:31:39.171Z,14.71
2022-09-18T20:34:07.377Z,14.68
2022-09-18T20:36:35.268Z,14.64
2022-09-18T20:39:03.709Z,14.63
2022-09-18T20:41:32.035Z,14.56
2022-09-18T20:44:05.110Z,14.56
2022-09-18T20:46:37.145Z,14.54
2022-09-18T20:49:08.173Z,14.55
2022-09-18T20:51:36.639Z,14.53
2022-09-18T20:54:06.982Z,14.51
2022-09-18T20:56:41.262Z,14.48
2022-09-18T20:59:10.329Z,14.46
2022-09-18T21:01:42.062Z,14.45
2022-09-18T21:04:17.347Z,14.42
2022-09-18T21:06:46.978Z,14.41
2022-09-18T21:09:16.026Z,14.38
2022-09-18T21:11:45.362Z,14.33
2022-09-18T21:14:15.613Z,14.32
2022-09-18T21:16:44.861Z,14.33
2022-09-18T21:19:17.080Z,14.34
2022-09-18T21:21:45.019Z,14.29
2022-09-18T21:24:13.834Z,14.29
2022-09-18T21:26:44.130Z,14.28
2022-09-18T21:29:14.059Z,14.25
2022-09-18T21:31:43.410Z,14.24
2022-09-18T21:34:13.104Z,14.21
2022-09-18T21:36:44.024Z,14.18
2022-09-18T21:39:13.671Z,14.16
2022-09-18T21:41:46.251Z,14.17
2022-09-18T21:44:16.195Z,14.06
2022-09-18T21:46:45.897Z,14.03
2022-09-18T21:49:16.149Z,14.07
2022-09-18T21:51:47.576Z,14.10
2022-09-18T21:54:18.771Z,14.10
2022-09-18T21:56:49.035Z,14.07
2022-09-18T21:59:17.035Z,14.06
2022-09-18T22:01:45.067Z,13.70
2022-09-18T22:04:13.382Z,13.68
2022-09-18T22:06:43.144Z,13.79
2022-09-18T22:09:14.651Z,13.85
2022-09-18T22:11:44.869Z,13.87
2022-09-18T22:14:15.539Z,13.86
2022-09-18T22:16:45.689Z,13.84
2022-09-18T22:19:14.050Z,13.79
2022-09-18T22:21:44.543Z,13.79
2022-09-18T22:24:15.831Z,13.81
2022-09-18T22:26:45.695Z,13.83
2022-09-18T22:29:17.141Z,13.81
2022-09-18T22:31:46.513Z,13.77
2022-09-18T22:34:16.112Z,13.76
2022-09-18T22:36:44.200Z,13.74
2022-09-18T22:39:14.700Z,13.71
2022-09-18T22:41:42.765Z,13.65
2022-09-18T22:44:11.485Z,13.65
2022-09-18T22:46:41.568Z,13.64
2022-09-18T22:49:10.225Z,13.62
2022-09-18T22:51:40.006Z,13.62
2022-09-18T22:54:08.652Z,13.57
2022-09-18T22:56:41.793Z,13.56
2022-09-18T22:59:11.877Z,13.53
2022-09-18T23:01:42.564Z,13.53
2022-09-18T23:04:11.126Z,13.50
2022-09-18T23:06:39.824Z,13.52
2022-09-18T23:09:07.760Z,13.51
2022-09-18T23:11:36.315Z,13.39
2022-09-18T23:14:06.927Z,13.29
2022-09-18T23:16:37.362Z,13.30
2022-09-18T23:19:07.343Z,13.28
2022-09-18T23:21:36.643Z,13.26
2022-09-18T23:24:09.113Z,13.29
2022-09-18T23:26:39.681Z,13.28
2022-09-18T23:29:10.480Z,13.22
2022-09-18T23:31:40.513Z,13.24
2022-09-18T23:34:10.316Z,13.24
2022-09-18T23:36:40.769Z,13.25
2022-09-18T23:39:13.599Z,13.24
2022-09-18T23:41:42.231Z,13.27
2022-09-18T23:44:13.163Z,13.17
2022-09-18T23:46:41.924Z,13.13
2022-09-18T23:49:12.233Z,13.13
2022-09-18T23:51:42.582Z,13.15
2022-09-18T23:54:16.698Z,13.11
2022-09-18T23:56:45.431Z,12.97
2022-09-18T23:59:18.638Z,12.90
